Time;durP1;ratioP1;P1;durP2;ratioP2;P2;SDS_P1;SDS_P2;PMS_P1;PMS_P2;Temp;Humidity;BMP_temperature;BMP_pressure;BME280_temperature;BME280_humidity;BME280_pressure;Samples;Min_cycle;Max_cycle;Signal;HPM_P1;HPM_P2
2023/10/25 00:02:19;;;;;;;31.52;19.90;;;;;;;8.91;100.00;100171.56;4945444;29;20269;-41
2023/10/25 00:04:45;;;;;;;30.30;21.40;;;;;;;8.92;100.00;100174.19;4947148;28;20214;-42
2023/10/25 00:07:10;;;;;;;24.70;19.52;;;;;;;8.93;100.00;100165.22;4942411;29;20219;-42
2023/10/25 00:09:35;;;;;;;25.55;20.25;;;;;;;8.91;100.00;100175.09;4944597;29;20639;-42
2023/10/25 00:12:01;;;;;;;32.25;21.02;;;;;;;8.93;100.00;100172.38;4943891;28;20253;-42
2023/10/25 00:14:27;;;;;;;28.30;20.92;;;;;;;8.88;100.00;100169.91;4947654;28;20215;-43
2023/10/25 00:16:53;;;;;;;26.58;21.05;;;;;;;8.90;100.00;100172.47;4944325;29;20179;-41
2023/10/25 00:19:19;;;;;;;24.92;20.27;;;;;;;8.81;100.00;100185.31;4944452;29;20674;-41
2023/10/25 00:21:45;;;;;;;27.73;20.40;;;;;;;8.81;100.00;100179.97;4946992;29;20634;-40
2023/10/25 00:24:10;;;;;;;29.35;20.73;;;;;;;8.81;100.00;100192.44;4945963;28;20191;-41
2023/10/25 00:26:36;;;;;;;26.48;18.55;;;;;;;8.78;100.00;100177.41;4944332;29;20186;-42
2023/10/25 00:29:01;;;;;;;29.73;19.98;;;;;;;8.73;100.00;100182.09;4942297;29;20600;-42
2023/10/25 00:31:27;;;;;;;33.13;21.80;;;;;;;8.71;100.00;100178.59;4946935;29;20618;-42
2023/10/25 00:33:52;;;;;;;34.63;22.27;;;;;;;8.59;100.00;100180.00;4945190;28;20186;-42
2023/10/25 00:36:18;;;;;;;29.75;20.60;;;;;;;8.60;100.00;100178.19;4945746;29;20226;-41
2023/10/25 00:38:43;;;;;;;29.23;21.08;;;;;;;8.58;100.00;100170.22;4945953;28;20555;-43
2023/10/25 00:41:09;;;;;;;26.88;19.50;;;;;;;8.50;100.00;100182.13;4931589;29;20190;-43
2023/10/25 00:43:35;;;;;;;28.02;19.58;;;;;;;8.57;100.00;100178.28;4946932;29;20322;-42
2023/10/25 00:46:22;;;;;;;28.20;18.65;;;;;;;8.56;100.00;100173.88;4943393;29;20191;-42
2023/10/25 00:48:52;;;;;;;26.02;19.42;;;;;;;8.43;100.00;100187.72;4944615;29;20274;-41
2023/10/25 00:51:21;;;;;;;25.63;19.77;;;;;;;8.43;100.00;100176.19;4942042;29;20258;-41
2023/10/25 00:53:49;;;;;;;26.77;19.75;;;;;;;8.42;100.00;100180.66;4944489;29;20198;-43
2023/10/25 00:56:16;;;;;;;30.13;20.40;;;;;;;8.36;100.00;100175.53;4944976;28;20229;-40
2023/10/25 00:58:45;;;;;;;23.65;17.92;;;;;;;8.33;100.00;100177.44;4945050;29;20547;-42
2023/10/25 01:01:13;;;;;;;24.42;19.67;;;;;;;8.12;100.00;100176.50;4941552;29;20191;-42
2023/10/25 01:03:40;;;;;;;27.02;19.25;;;;;;;8.14;100.00;100183.50;4944064;29;20186;-42
2023/10/25 01:06:06;;;;;;;30.25;19.80;;;;;;;8.14;100.00;100177.31;4944762;28;20238;-42
2023/10/25 01:08:32;;;;;;;28.73;20.35;;;;;;;8.13;100.00;100172.88;4945817;28;20265;-40
2023/10/25 01:10:58;;;;;;;31.88;20.90;;;;;;;8.20;100.00;100177.06;4938920;29;20195;-42
2023/10/25 01:13:23;;;;;;;29.05;20.70;;;;;;;8.17;100.00;100175.34;4941512;29;20238;-41
2023/10/25 01:15:49;;;;;;;28.48;19.88;;;;;;;8.15;100.00;100189.69;4946406;28;20210;-43
2023/10/25 01:18:15;;;;;;;29.17;21.42;;;;;;;8.14;100.00;100186.16;4945775;29;20225;-42
2023/10/25 01:20:41;;;;;;;33.35;23.30;;;;;;;8.18;100.00;100187.78;4943139;29;20661;-42
2023/10/25 01:23:07;;;;;;;33.88;22.38;;;;;;;8.15;100.00;100193.22;4942575;28;20178;-42
2023/10/25 01:25:33;;;;;;;33.30;22.60;;;;;;;8.17;100.00;100182.50;4942709;29;20386;-43
2023/10/25 01:27:59;;;;;;;38.85;24.45;;;;;;;8.15;100.00;100187.88;4940246;28;20218;-42
2023/10/25 01:30:25;;;;;;;36.58;24.67;;;;;;;8.24;100.00;100192.00;4943234;28;20237;-44
2023/10/25 01:32:50;;;;;;;38.42;25.80;;;;;;;8.20;100.00;100193.06;4938453;28;20658;-42
2023/10/25 01:35:16;;;;;;;37.33;24.63;;;;;;;8.16;100.00;100189.66;4937949;28;20209;-41
2023/10/25 01:37:41;;;;;;;35.78;24.13;;;;;;;8.13;100.00;100189.75;4946083;28;20266;-44
2023/10/25 01:40:07;;;;;;;43.38;25.73;;;;;;;8.12;100.00;100188.03;4929558;28;20193;-43
2023/10/25 01:42:33;;;;;;;38.75;25.60;;;;;;;8.09;100.00;100177.47;4921186;29;20198;-41
2023/10/25 01:45:01;;;;;;;39.95;24.95;;;;;;;8.11;100.00;100180.06;4939456;28;20252;-42
2023/10/25 01:47:27;;;;;;;41.60;25.15;;;;;;;8.05;100.00;100171.38;4945681;28;20324;-42
2023/10/25 01:49:52;;;;;;;36.67;25.30;;;;;;;8.00;100.00;100183.13;4941970;28;20195;-43
2023/10/25 01:52:18;;;;;;;42.42;25.00;;;;;;;7.94;100.00;100178.06;4938935;28;20180;-41
2023/10/25 01:54:46;;;;;;;37.00;23.80;;;;;;;7.98;100.00;100172.56;4939001;28;20570;-42
2023/10/25 01:57:12;;;;;;;35.92;23.30;;;;;;;7.96;100.00;100178.84;4941328;28;20257;-43
2023/10/25 01:59:37;;;;;;;41.05;24.40;;;;;;;7.92;100.00;100171.91;4941646;28;20682;-41
2023/10/25 02:02:03;;;;;;;36.80;24.05;;;;;;;7.95;100.00;100182.47;4927736;28;20330;-41
2023/10/25 02:04:29;;;;;;;40.05;23.50;;;;;;;7.94;100.00;100186.94;4937403;28;20211;-43
2023/10/25 02:06:55;;;;;;;41.45;25.38;;;;;;;7.93;100.00;100181.66;4938316;28;20613;-43
2023/10/25 02:09:21;;;;;;;37.47;25.02;;;;;;;7.89;100.00;100174.69;4945595;28;20769;-42
2023/10/25 02:11:47;;;;;;;41.30;24.33;;;;;;;7.88;100.00;100178.28;4944916;28;20293;-42
2023/10/25 02:14:13;;;;;;;41.38;24.27;;;;;;;7.90;100.00;100173.78;4943424;28;20190;-42
2023/10/25 02:16:39;;;;;;;37.55;24.58;;;;;;;7.81;100.00;100158.97;4941210;28;20183;-42
2023/10/25 02:19:05;;;;;;;38.50;24.58;;;;;;;7.82;100.00;100166.91;4942299;28;20531;-42
2023/10/25 02:21:35;;;;;;;40.10;23.70;;;;;;;7.82;100.00;100166.03;4945113;28;20191;-42
2023/10/25 02:24:05;;;;;;;41.47;24.42;;;;;;;7.96;100.00;100181.50;4945217;28;20246;-43
2023/10/25 02:26:30;;;;;;;44.47;26.20;;;;;;;7.86;100.00;100172.16;4943709;28;20290;-39
2023/10/25 02:28:56;;;;;;;50.80;26.30;;;;;;;7.78;100.00;100164.41;4944570;28;20627;-42
2023/10/25 02:31:22;;;;;;;44.10;26.42;;;;;;;7.79;100.00;100164.38;4947765;28;20190;-40
2023/10/25 02:33:48;;;;;;;44.70;26.13;;;;;;;7.76;100.00;100164.50;4944377;28;20674;-42
2023/10/25 02:36:13;;;;;;;49.22;27.80;;;;;;;7.75;100.00;100162.75;4943725;28;20592;-42
2023/10/25 02:38:39;;;;;;;53.58;28.55;;;;;;;7.71;100.00;100161.09;4942108;28;20190;-42
2023/10/25 02:41:04;;;;;;;46.75;26.45;;;;;;;7.73;100.00;100156.59;4950403;28;20742;-40
2023/10/25 02:43:30;;;;;;;49.20;27.23;;;;;;;7.70;100.00;100158.53;4933073;29;20242;-42
2023/10/25 02:46:03;;;;;;;49.95;27.23;;;;;;;7.69;100.00;100157.63;4944912;28;20248;-43
2023/10/25 02:48:29;;;;;;;50.03;26.30;;;;;;;7.67;100.00;100169.28;4903114;28;1173049;-43
2023/10/25 02:50:59;;;;;;;45.83;26.27;;;;;;;7.66;100.00;100157.75;4939363;28;20651;-43
2023/10/25 02:53:24;;;;;;;49.08;25.85;;;;;;;7.61;100.00;100173.06;4948677;28;20270;-41
2023/10/25 02:55:50;;;;;;;47.90;26.83;;;;;;;7.69;100.00;100157.63;4945631;28;20742;-41
2023/10/25 02:58:15;;;;;;;52.33;27.75;;;;;;;7.64;100.00;100155.13;4944556;28;20606;-43
2023/10/25 03:00:41;;;;;;;52.45;27.17;;;;;;;7.64;100.00;100159.59;4940798;28;20191;-43
2023/10/25 03:03:07;;;;;;;53.63;28.33;;;;;;;7.64;100.00;100164.94;4948242;28;20194;-43
2023/10/25 03:05:33;;;;;;;56.10;29.30;;;;;;;7.64;100.00;100164.94;4943932;28;20832;-43
2023/10/25 03:07:59;;;;;;;61.50;29.70;;;;;;;7.65;100.00;100161.31;4947586;28;20215;-43
2023/10/25 03:10:25;;;;;;;57.08;29.85;;;;;;;7.70;100.00;100159.38;4948266;28;20187;-42
2023/10/25 03:12:50;;;;;;;60.58;29.85;;;;;;;7.73;100.00;100164.59;4942791;28;20187;-42
2023/10/25 03:15:16;;;;;;;59.40;30.60;;;;;;;7.74;100.00;100158.34;4947180;28;20731;-43
2023/10/25 03:17:41;;;;;;;59.45;30.08;;;;;;;7.78;100.00;100157.31;4944155;29;20198;-44
2023/10/25 03:20:07;;;;;;;62.80;31.20;;;;;;;7.75;100.00;100162.75;4942862;28;20191;-44
2023/10/25 03:22:32;;;;;;;62.05;30.83;;;;;;;7.80;100.00;100166.09;4942662;29;20680;-43
2023/10/25 03:24:58;;;;;;;67.18;31.58;;;;;;;7.79;100.00;100168.84;4932345;29;20222;-43
2023/10/25 03:27:24;;;;;;;64.47;31.00;;;;;;;7.82;100.00;100161.56;4947773;29;20939;-42
2023/10/25 03:29:49;;;;;;;66.80;30.50;;;;;;;7.81;100.00;100161.66;4945795;28;20254;-42
2023/10/25 03:32:15;;;;;;;68.25;32.38;;;;;;;7.85;100.00;100163.28;4947059;29;20194;-44
2023/10/25 03:34:43;;;;;;;74.53;31.92;;;;;;;7.84;100.00;100151.72;4947879;28;20219;-43
2023/10/25 03:37:08;;;;;;;70.80;32.45;;;;;;;7.83;100.00;100155.31;4949045;29;20249;-41
2023/10/25 03:39:35;;;;;;;70.97;31.58;;;;;;;7.88;100.00;100151.63;4947210;29;20194;-44
2023/10/25 03:42:00;;;;;;;67.05;32.75;;;;;;;7.87;100.00;100153.44;4941526;29;20682;-43
2023/10/25 03:44:27;;;;;;;76.57;33.92;;;;;;;7.86;100.00;100150.81;4948130;28;20217;-41
2023/10/25 03:46:54;;;;;;;74.40;34.00;;;;;;;7.88;100.00;100155.16;4947130;29;20569;-42
2023/10/25 03:49:20;;;;;;;74.38;33.72;;;;;;;7.83;100.00;100160.66;4946438;29;20206;-42
2023/10/25 03:51:45;;;;;;;75.50;34.45;;;;;;;7.85;100.00;100152.63;4948034;29;20579;-43
2023/10/25 03:54:11;;;;;;;74.10;35.45;;;;;;;7.82;100.00;100144.72;4944076;29;20571;-42
2023/10/25 03:56:36;;;;;;;72.40;34.28;;;;;;;7.89;100.00;100158.69;4943996;29;20198;-42
2023/10/25 03:59:02;;;;;;;75.55;33.85;;;;;;;7.90;100.00;100157.78;4948686;29;20179;-42
2023/10/25 04:01:27;;;;;;;73.15;34.15;;;;;;;7.86;100.00;100154.34;4929097;29;20194;-43
2023/10/25 04:03:53;;;;;;;74.95;33.58;;;;;;;7.83;100.00;100158.00;4941381;29;20246;-42
2023/10/25 04:06:18;;;;;;;70.05;33.15;;;;;;;7.85;100.00;100157.94;4940853;29;20288;-42
2023/10/25 04:08:44;;;;;;;66.88;32.67;;;;;;;7.87;100.00;100163.19;4950427;29;20242;-47
2023/10/25 04:11:09;;;;;;;70.05;34.40;;;;;;;7.84;100.00;100157.06;4942885;29;20188;-42
2023/10/25 04:13:34;;;;;;;71.22;32.88;;;;;;;7.89;100.00;100148.00;4945221;28;20183;-42
2023/10/25 04:16:02;;;;;;;66.50;33.08;;;;;;;7.93;100.00;100153.16;4937567;28;20735;-43
2023/10/25 04:18:29;;;;;;;67.82;33.00;;;;;;;7.92;100.00;100154.09;4949937;29;20206;-42
2023/10/25 04:20:57;;;;;;;79.03;34.88;;;;;;;7.90;100.00;100160.44;4943656;29;20201;-41
2023/10/25 04:23:24;;;;;;;75.47;34.95;;;;;;;7.93;100.00;100149.63;4946770;28;20211;-42
2023/10/25 04:25:50;;;;;;;74.10;33.88;;;;;;;7.84;100.00;100149.06;4945301;29;20202;-43
2023/10/25 04:28:17;;;;;;;64.50;31.50;;;;;;;7.90;100.00;100155.97;4946559;29;20318;-40
2023/10/25 04:30:43;;;;;;;67.97;32.03;;;;;;;7.96;100.00;100161.06;4944869;28;20193;-41
2023/10/25 04:33:08;;;;;;;66.53;31.45;;;;;;;7.95;100.00;100150.44;4948872;29;20210;-41
2023/10/25 04:35:34;;;;;;;72.18;31.90;;;;;;;7.97;100.00;100148.59;4946955;28;20222;-43
2023/10/25 04:37:59;;;;;;;68.40;32.15;;;;;;;7.94;100.00;100160.25;4946645;29;20190;-43
2023/10/25 04:40:25;;;;;;;61.95;31.58;;;;;;;7.95;100.00;100167.31;4948512;29;20568;-42
2023/10/25 04:42:50;;;;;;;58.85;30.45;;;;;;;7.99;100.00;100170.75;4947552;29;20239;-42
2023/10/25 04:45:16;;;;;;;72.45;32.95;;;;;;;7.92;100.00;100158.59;4945461;29;20349;-42
2023/10/25 04:47:42;;;;;;;64.93;31.05;;;;;;;7.96;100.00;100161.06;4943397;29;20223;-43
2023/10/25 04:50:08;;;;;;;64.32;31.20;;;;;;;7.89;100.00;100159.53;4943854;29;20240;-42
2023/10/25 04:52:34;;;;;;;68.07;30.05;;;;;;;7.85;100.00;100160.63;4947956;29;21728;-42
2023/10/25 04:54:59;;;;;;;62.92;30.52;;;;;;;7.87;100.00;100161.44;4945746;28;20318;-43
2023/10/25 04:57:25;;;;;;;58.63;29.15;;;;;;;7.92;100.00;100166.59;4943957;29;20192;-42
2023/10/25 04:59:51;;;;;;;66.45;30.60;;;;;;;7.86;100.00;100161.47;4938349;29;20250;-41
2023/10/25 05:02:16;;;;;;;63.25;29.23;;;;;;;7.85;100.00;100155.28;4949787;28;20273;-41
2023/10/25 05:04:42;;;;;;;69.53;30.77;;;;;;;7.84;100.00;100164.19;4943906;29;20690;-41
2023/10/25 05:07:08;;;;;;;63.67;29.35;;;;;;;7.88;100.00;100164.97;4947085;29;20284;-44
2023/10/25 05:09:34;;;;;;;73.20;31.10;;;;;;;7.83;100.00;100166.00;4945013;28;20218;-42
2023/10/25 05:12:04;;;;;;;71.35;31.30;;;;;;;7.81;100.00;100157.19;4945822;28;20662;-43
2023/10/25 05:14:30;;;;;;;71.93;31.05;;;;;;;7.80;100.00;100157.22;4944247;28;20249;-43
2023/10/25 05:16:56;;;;;;;67.35;29.38;;;;;;;7.83;100.00;100166.00;4944428;29;20329;-42
2023/10/25 05:19:22;;;;;;;67.88;31.77;;;;;;;7.83;100.00;100165.13;4941345;29;20690;-43
2023/10/25 05:21:51;;;;;;;60.67;29.88;;;;;;;7.90;100.00;100163.97;4940463;29;20191;-41
2023/10/25 05:24:17;;;;;;;68.65;31.25;;;;;;;7.86;100.00;100164.16;4946650;28;20273;-42
2023/10/25 05:26:44;;;;;;;70.82;30.27;;;;;;;7.87;100.00;100160.53;4932974;29;20194;-44
2023/10/25 05:29:09;;;;;;;61.38;30.52;;;;;;;7.93;100.00;100170.97;4943252;29;20246;-42
2023/10/25 05:31:45;;;;;;;65.85;30.45;;;;;;;7.87;100.00;100165.88;4942047;29;20604;-43
2023/10/25 05:34:11;;;;;;;61.28;30.40;;;;;;;7.79;100.00;100167.03;4946484;28;20657;-41
2023/10/25 05:36:38;;;;;;;66.43;30.52;;;;;;;7.82;100.00;100169.56;4949453;29;20201;-42
2023/10/25 05:39:06;;;;;;;62.63;29.50;;;;;;;7.80;100.00;100171.44;4928822;29;20198;-43
2023/10/25 05:41:39;;;;;;;67.47;31.17;;;;;;;7.80;100.00;100175.91;4941065;28;20560;-43
2023/10/25 05:44:13;;;;;;;59.90;30.55;;;;;;;7.75;100.00;100181.41;4946110;29;20255;-42
2023/10/25 05:46:39;;;;;;;65.20;31.75;;;;;;;7.74;100.00;100177.00;4951961;29;20281;-43
2023/10/25 05:49:05;;;;;;;61.05;30.50;;;;;;;7.75;100.00;100177.88;4949956;29;20297;-44
2023/10/25 05:51:31;;;;;;;61.28;30.13;;;;;;;7.78;100.00;100178.63;4947941;29;20195;-41
2023/10/25 05:53:57;;;;;;;65.22;31.50;;;;;;;7.77;100.00;100178.69;4945475;29;20611;-42
2023/10/25 05:56:26;;;;;;;69.22;32.17;;;;;;;7.71;100.00;100181.56;4948955;28;20292;-43
2023/10/25 05:58:55;;;;;;;61.97;31.23;;;;;;;7.72;100.00;100177.97;4951486;28;20195;-44
2023/10/25 06:01:47;;;;;;;61.60;30.10;;;;;;;7.67;100.00;100187.94;4947119;29;20195;-42
2023/10/25 06:04:13;;;;;;;68.63;30.15;;;;;;;7.74;100.00;100182.34;4943921;29;20294;-42
2023/10/25 06:06:41;;;;;;;60.33;29.88;;;;;;;7.79;100.00;100180.38;4947433;29;20187;-40
2023/10/25 06:09:08;;;;;;;70.07;30.80;;;;;;;7.75;100.00;100184.06;4947594;29;20326;-41
2023/10/25 06:11:34;;;;;;;65.50;30.00;;;;;;;7.81;100.00;100194.53;4949593;28;20191;-42
2023/10/25 06:14:00;;;;;;;67.35;31.92;;;;;;;7.81;100.00;100194.53;4930132;29;20278;-43
2023/10/25 06:16:25;;;;;;;57.92;30.88;;;;;;;7.82;100.00;100196.25;4945541;29;20756;-41
2023/10/25 06:18:51;;;;;;;64.00;29.30;;;;;;;7.80;100.00;100198.09;4950110;29;20678;-42
2023/10/25 06:21:17;;;;;;;63.83;30.08;;;;;;;7.82;100.00;100206.03;4948531;29;20484;-42
2023/10/25 06:23:42;;;;;;;64.68;30.88;;;;;;;7.84;100.00;100196.19;4946843;29;20646;-43
2023/10/25 06:26:08;;;;;;;65.07;30.23;;;;;;;7.87;100.00;100193.44;4926626;28;20333;-42
2023/10/25 06:28:34;;;;;;;60.30;29.33;;;;;;;7.89;100.00;100199.56;4948364;29;20221;-42
2023/10/25 06:30:59;;;;;;;58.40;29.30;;;;;;;7.93;100.00;100200.31;4949022;29;20194;-43
2023/10/25 06:33:25;;;;;;;54.70;28.65;;;;;;;7.96;100.00;100194.84;4947370;29;20191;-43
2023/10/25 06:35:51;;;;;;;56.85;29.98;;;;;;;7.86;100.00;100196.16;4947122;29;20685;-41
2023/10/25 06:38:17;;;;;;;58.03;29.23;;;;;;;7.84;100.00;100202.38;4946311;29;20183;-44
2023/10/25 06:40:43;;;;;;;66.47;30.25;;;;;;;7.81;100.00;100199.84;4949470;28;20595;-44
2023/10/25 06:43:09;;;;;;;60.28;30.65;;;;;;;7.80;100.00;100200.75;4945769;29;20808;-43
2023/10/25 06:45:35;;;;;;;57.25;28.15;;;;;;;7.86;100.00;100202.34;4945477;28;20821;-44
2023/10/25 06:48:01;;;;;;;60.03;29.85;;;;;;;7.89;100.00;100201.34;4942285;29;20222;-43
2023/10/25 06:50:28;;;;;;;60.55;29.98;;;;;;;7.82;100.00;100200.72;4949199;29;20575;-42
2023/10/25 06:52:53;;;;;;;56.13;29.33;;;;;;;7.82;100.00;100193.56;4947163;28;20198;-43
2023/10/25 06:55:20;;;;;;;65.53;30.35;;;;;;;7.86;100.00;100198.81;4948507;28;20207;-43
2023/10/25 06:57:46;;;;;;;57.33;29.30;;;;;;;7.93;100.00;100192.31;4946233;29;20191;-41
2023/10/25 07:00:12;;;;;;;56.25;28.25;;;;;;;7.80;100.00;100192.75;4944736;29;20187;-43
2023/10/25 07:02:56;;;;;;;53.22;27.88;;;;;;;7.88;100.00;100194.28;4948345;28;20533;-42
2023/10/25 07:05:23;;;;;;;57.08;29.42;;;;;;;7.90;100.00;100187.09;4943858;28;20206;-43
2023/10/25 07:07:51;;;;;;;53.95;28.42;;;;;;;7.95;100.00;100186.00;4947815;29;20219;-43
2023/10/25 07:10:17;;;;;;;51.67;27.25;;;;;;;7.94;100.00;100178.06;4944215;29;20674;-43
2023/10/25 07:12:43;;;;;;;61.55;29.25;;;;;;;7.96;100.00;100182.41;4949098;29;20242;-41
2023/10/25 07:15:10;;;;;;;58.83;28.48;;;;;;;7.92;100.00;100187.91;4948780;28;20716;-42
2023/10/25 07:17:37;;;;;;;54.55;27.83;;;;;;;7.93;100.00;100184.31;4916093;29;20282;-42
2023/10/25 07:20:03;;;;;;;53.53;28.05;;;;;;;7.95;100.00;100191.31;4940330;29;20206;-43
2023/10/25 07:22:28;;;;;;;58.50;28.50;;;;;;;8.00;100.00;100188.47;4946424;29;20182;-42
2023/10/25 07:24:55;;;;;;;58.20;28.50;;;;;;;7.97;100.00;100181.47;4945256;28;20215;-42
2023/10/25 07:27:21;;;;;;;54.47;28.60;;;;;;;8.04;100.00;100179.44;4948465;29;20303;-42
2023/10/25 07:29:48;;;;;;;59.60;28.88;;;;;;;8.08;100.00;100181.06;4943797;29;20222;-43
2023/10/25 07:32:13;;;;;;;51.63;28.65;;;;;;;8.09;100.00;100173.91;4940278;28;20697;-42
2023/10/25 07:34:39;;;;;;;58.22;29.25;;;;;;;8.12;100.00;100174.69;4947126;29;20230;-42
2023/10/25 07:37:05;;;;;;;52.42;27.23;;;;;;;8.17;100.00;100177.16;4948877;29;20198;-44
2023/10/25 07:39:31;;;;;;;53.72;29.13;;;;;;;8.15;100.00;100181.69;4928386;29;20182;-43
2023/10/25 07:41:56;;;;;;;61.40;29.85;;;;;;;8.12;100.00;100172.00;4942232;29;20357;-41
2023/10/25 07:44:22;;;;;;;56.45;27.45;;;;;;;8.07;100.00;100167.78;4936453;28;20191;-42
2023/10/25 07:46:47;;;;;;;56.05;28.13;;;;;;;8.08;100.00;100159.72;4948687;29;20252;-43
2023/10/25 07:49:13;;;;;;;50.95;28.00;;;;;;;8.16;100.00;100168.31;4945849;29;20211;-44
2023/10/25 07:51:38;;;;;;;57.92;28.13;;;;;;;8.15;100.00;100168.34;4944654;29;20191;-40
2023/10/25 07:54:04;;;;;;;54.05;27.33;;;;;;;8.12;100.00;100172.00;4921147;29;20274;-43
2023/10/25 07:56:29;;;;;;;48.03;27.38;;;;;;;8.17;100.00;100161.16;4945711;28;20247;-43
2023/10/25 07:58:55;;;;;;;52.38;27.13;;;;;;;8.23;100.00;100169.78;4947625;29;20674;-42
2023/10/25 08:01:21;;;;;;;50.80;27.90;;;;;;;8.16;100.00;100164.78;4944586;29;20197;-43
2023/10/25 08:03:46;;;;;;;51.63;26.77;;;;;;;8.18;100.00;100162.91;4939866;29;20233;-43
2023/10/25 08:06:12;;;;;;;51.63;27.05;;;;;;;8.22;100.00;100161.84;4946301;28;20241;-42
2023/10/25 08:08:39;;;;;;;54.20;26.40;;;;;;;8.22;100.00;100162.72;4943062;29;20579;-43
2023/10/25 08:11:06;;;;;;;59.75;27.85;;;;;;;8.27;100.00;100170.56;4947176;29;20183;-43
2023/10/25 08:13:34;;;;;;;52.75;28.55;;;;;;;8.35;100.00;100164.91;4941951;29;20383;-43
2023/10/25 08:16:01;;;;;;;57.55;27.95;;;;;;;8.51;100.00;100168.75;4943307;28;20213;-42
2023/10/25 08:18:28;;;;;;;55.53;29.08;;;;;;;8.51;100.00;100160.72;4927024;29;20191;-43
2023/10/25 08:20:55;;;;;;;46.53;26.75;;;;;;;8.64;100.00;100169.13;4949751;28;20764;-44
2023/10/25 08:23:21;;;;;;;49.10;27.35;;;;;;;8.55;100.00;100159.69;4945281;29;20186;-43
2023/10/25 08:25:46;;;;;;;50.90;27.42;;;;;;;8.56;100.00;100156.06;4942750;29;20655;-43
2023/10/25 08:28:12;;;;;;;45.60;27.50;;;;;;;8.61;100.00;100153.19;4940477;29;20203;-42
2023/10/25 08:30:37;;;;;;;47.22;27.60;;;;;;;8.76;100.00;100143.69;4948261;29;20277;-43
2023/10/25 08:33:03;;;;;;;51.70;27.40;;;;;;;8.78;100.00;100155.19;4947170;29;20191;-43
2023/10/25 08:35:28;;;;;;;51.75;28.05;;;;;;;8.87;100.00;100142.28;4944324;29;20218;-43
2023/10/25 08:37:54;;;;;;;47.63;27.60;;;;;;;8.78;100.00;100145.34;4945183;28;20171;-43
2023/10/25 08:40:20;;;;;;;54.10;29.08;;;;;;;8.91;100.00;100148.38;4947468;29;20187;-43
2023/10/25 08:42:45;;;;;;;48.80;26.48;;;;;;;8.81;100.00;100142.56;4947316;29;20246;-41
2023/10/25 08:45:14;;;;;;;61.67;32.83;;;;;;;8.85;100.00;100143.28;4941468;29;20214;-41
2023/10/25 08:47:40;;;;;;;51.30;28.63;;;;;;;8.71;100.00;100138.53;4942979;29;20672;-41
2023/10/25 08:50:06;;;;;;;46.17;26.65;;;;;;;8.76;100.00;100139.22;4946765;29;20199;-43
2023/10/25 08:52:32;;;;;;;50.90;25.05;;;;;;;8.80;100.00;100138.16;4947490;29;20179;-43
2023/10/25 08:54:58;;;;;;;41.13;24.80;;;;;;;8.86;100.00;100140.56;4944354;28;20206;-41
2023/10/25 08:57:25;;;;;;;48.25;25.48;;;;;;;8.81;100.00;100134.56;4944019;29;20275;-40
2023/10/25 08:59:51;;;;;;;45.45;26.63;;;;;;;8.84;100.00;100133.56;4941837;29;20187;-41
2023/10/25 09:02:17;;;;;;;53.47;32.22;;;;;;;8.80;100.00;100142.63;4950306;28;20221;-43
2023/10/25 09:05:08;;;;;;;42.00;24.35;;;;;;;8.86;100.00;100137.03;4947140;28;20408;-45
2023/10/25 09:07:36;;;;;;;42.45;24.58;;;;;;;8.85;100.00;100141.53;4942374;29;20218;-45
2023/10/25 09:10:11;;;;;;;43.17;24.38;;;;;;;8.82;100.00;100133.63;4947238;28;20182;-44
2023/10/25 09:12:37;;;;;;;41.05;23.05;;;;;;;8.89;100.00;100133.38;4952801;28;20218;-43
2023/10/25 09:15:03;;;;;;;46.35;24.67;;;;;;;8.79;100.00;100147.13;4948251;28;20628;-47
2023/10/25 09:17:32;;;;;;;43.08;23.63;;;;;;;8.73;100.00;100141.16;4943390;28;20296;-44
2023/10/25 09:19:57;;;;;;;41.85;24.15;;;;;;;8.77;100.00;100134.75;4944818;29;20687;-42
2023/10/25 09:22:28;;;;;;;47.25;24.00;;;;;;;8.91;100.00;100140.38;4947000;29;20207;-43
2023/10/25 09:24:56;;;;;;;40.10;23.20;;;;;;;8.89;100.00;100136.03;4944583;28;20290;-43
2023/10/25 09:27:23;;;;;;;36.35;22.98;;;;;;;8.97;100.00;100132.09;4945534;29;20218;-45
2023/10/25 09:29:50;;;;;;;41.05;24.65;;;;;;;8.99;100.00;100126.69;4936387;29;20195;-43
2023/10/25 09:32:17;;;;;;;40.28;23.58;;;;;;;9.07;100.00;100125.44;4941560;29;20187;-46
2023/10/25 09:34:43;;;;;;;40.83;24.35;;;;;;;8.98;100.00;100128.47;4945279;28;20198;-43
2023/10/25 09:37:08;;;;;;;39.50;23.42;;;;;;;9.12;100.00;100119.88;4947717;29;20248;-46
2023/10/25 09:39:37;;;;;;;44.55;23.55;;;;;;;9.06;100.00;100122.81;4946799;29;20356;-46
2023/10/25 09:42:10;;;;;;;39.33;24.30;;;;;;;9.07;100.00;100125.44;4941454;29;20288;-45
2023/10/25 09:44:47;;;;;;;46.55;24.25;;;;;;;8.99;100.00;100124.03;4947437;28;20214;-44
2023/10/25 09:47:16;;;;;;;35.97;21.95;;;;;;;8.93;100.00;100121.63;4949332;28;20203;-43
2023/10/25 09:49:43;;;;;;;40.28;22.67;;;;;;;9.00;100.00;100115.94;4947278;29;20550;-43
2023/10/25 09:52:20;;;;;;;39.40;24.08;;;;;;;9.05;100.00;100111.28;4947124;29;20218;-43
2023/10/25 09:54:49;;;;;;;41.30;23.80;;;;;;;8.99;100.00;100108.84;4941987;28;20209;-42
2023/10/25 09:57:17;;;;;;;38.38;22.13;;;;;;;9.14;100.00;100099.31;4950731;29;20183;-49
2023/10/25 09:59:43;;;;;;;46.90;24.15;;;;;;;9.23;100.00;100108.72;4947693;28;20219;-42
2023/10/25 10:02:10;;;;;;;36.33;23.70;;;;;;;9.18;100.00;100108.03;4943950;29;20258;-43
2023/10/25 10:04:53;;;;;;;35.50;22.50;;;;;;;9.28;100.00;100101.38;4940936;28;20288;-46
2023/10/25 10:07:38;;;;;;;36.03;22.77;;;;;;;9.10;100.00;100099.53;4946520;29;20234;-41
2023/10/25 10:10:27;;;;;;;38.78;23.08;;;;;;;9.21;100.00;100094.56;4947157;29;20202;-46
2023/10/25 10:12:52;;;;;;;39.88;22.13;;;;;;;9.16;100.00;100086.75;4941486;29;20192;-45
2023/10/25 10:15:19;;;;;;;37.63;22.77;;;;;;;9.32;100.00;100089.59;4946304;28;20207;-44
2023/10/25 10:17:45;;;;;;;42.15;22.08;;;;;;;9.54;100.00;100102.00;4943441;29;20266;-43
2023/10/25 10:20:28;;;;;;;36.70;22.05;;;;;;;9.64;100.00;100097.94;4946132;29;20221;-45
2023/10/25 10:23:04;;;;;;;36.20;22.10;;;;;;;9.54;100.00;100097.50;4944721;29;20182;-44
2023/10/25 10:25:45;;;;;;;38.30;21.40;;;;;;;9.35;100.00;100085.91;4945390;28;20202;-45
2023/10/25 10:28:11;;;;;;;34.97;22.67;;;;;;;9.36;100.00;100091.22;4944407;29;20560;-44
2023/10/25 10:30:41;;;;;;;38.70;22.33;;;;;;;9.17;100.00;100082.28;4950210;29;20191;-43
2023/10/25 10:33:11;;;;;;;36.20;20.48;;;;;;;9.34;100.00;100082.38;4947945;29;20227;-44
2023/10/25 10:35:44;;;;;;;34.20;20.15;;;;;;;9.30;100.00;100082.59;4952126;28;20225;-44
2023/10/25 10:38:10;;;;;;;31.67;20.30;;;;;;;9.38;100.00;100077.75;4948026;29;20188;-46
2023/10/25 10:40:36;;;;;;;31.83;19.50;;;;;;;9.45;100.00;100076.56;4945925;29;20213;-46
2023/10/25 10:43:02;;;;;;;35.40;21.45;;;;;;;9.47;100.00;100074.69;4949407;29;20790;-47
2023/10/25 10:45:29;;;;;;;35.67;21.02;;;;;;;9.51;100.00;100081.63;4947266;28;20218;-44
2023/10/25 10:48:11;;;;;;;38.50;21.92;;;;;;;9.64;100.00;100069.41;4945125;29;20515;-45
2023/10/25 10:50:39;;;;;;;40.10;21.88;;;;;;;9.74;100.00;100053.78;4946350;29;20199;-45
2023/10/25 10:53:04;;;;;;;32.08;19.95;;;;;;;9.78;100.00;100058.06;4946420;29;20187;-42
2023/10/25 10:55:30;;;;;;;35.47;20.73;;;;;;;9.96;100.00;100039.38;4946298;28;20774;-46
2023/10/25 10:57:55;;;;;;;34.20;19.88;;;;;;;9.99;100.00;100039.22;4946437;28;20179;-45
2023/10/25 11:00:21;;;;;;;35.13;22.23;;;;;;;9.95;100.00;100041.22;4950647;29;21396;-48
2023/10/25 11:02:48;;;;;;;37.28;20.08;;;;;;;9.72;100.00;100044.09;4951428;29;20244;-45
2023/10/25 11:05:19;;;;;;;29.55;18.10;;;;;;;9.81;100.00;100031.16;4949321;28;20290;-46
2023/10/25 11:07:50;;;;;;;29.25;17.13;;;;;;;9.80;100.00;100023.22;4944049;29;20230;-44
2023/10/25 11:10:16;;;;;;;35.75;18.05;;;;;;;10.19;100.00;100014.16;4946421;29;20653;-45